Time;durP1;ratioP1;P1;durP2;ratioP2;P2;SDS_P1;SDS_P2;PMS_P1;PMS_P2;Temp;Humidity;BMP_temperature;BMP_pressure;BME280_temperature;BME280_humidity;BME280_pressure;Samples;Min_cycle;Max_cycle;Signal;HPM_P1;HPM_P2
2023/12/23 07:38:01;;;;;;;;;;;;;;;9.31;73.87;97503.25;4226199;27;10228;-65
2023/12/23 07:40:07;;;;;;;;;;;;;;;9.58;73.28;97503.84;4204376;28;5844;-66
2023/12/23 07:42:09;;;;;;;;;;;;;;;9.78;72.85;97507.72;4214591;28;5772;-65
2023/12/23 07:44:12;;;;;;;;;;;;;;;9.93;72.37;97506.00;4214968;28;5722;-66
2023/12/23 07:46:14;;;;;;;;;;;;;;;10.01;71.80;97497.25;4214430;28;6592;-66
2023/12/23 07:48:17;;;;;;;;;;;;;;;10.10;71.28;97500.69;4214545;28;5706;-66
2023/12/23 07:50:20;;;;;;;;;;;;;;;10.22;70.80;97507.25;4208661;28;5792;-66
2023/12/23 07:52:23;;;;;;;;;;;;;;;10.29;70.36;97505.53;4214042;28;6384;-66
2023/12/23 07:54:27;;;;;;;;;;;;;;;10.36;70.48;97506.50;4214615;28;5804;-66
2023/12/23 07:56:30;;;;;;;;;;;;;;;10.44;70.30;97497.72;4213178;28;5698;-69
2023/12/23 07:58:33;;;;;;;;;;;;;;;10.50;69.84;97495.16;4198731;28;5107;-76
2023/12/23 08:00:37;;;;;;;;;;;;;;;10.54;69.65;97486.91;4204457;28;7741;-74
2023/12/23 08:02:40;;;;;;;;;;;;;;;10.57;69.23;97487.38;4213446;28;5717;-74
2023/12/23 08:04:43;;;;;;;;;;;;;;;10.60;69.24;97483.53;4208648;28;5830;-77
2023/12/23 08:06:46;;;;;;;;;;;;;;;10.64;68.94;97493.56;4206884;28;5833;-71
2023/12/23 08:08:49;;;;;;;;;;;;;;;10.62;68.66;97500.06;4212635;28;5833;-75
2023/12/23 08:10:54;;;;;;;;;;;;;;;10.65;68.45;97505.81;4207055;28;5723;-73
2023/12/23 08:12:57;;;;;;;;;;;;;;;10.67;68.39;97503.81;4199537;28;5686;-79
2023/12/23 08:15:00;;;;;;;;;;;;;;;10.67;68.13;97500.34;4197050;28;5865;-78
2023/12/23 08:17:03;;;;;;;;;;;;;;;10.66;68.23;97502.19;4201161;28;5862;-69
2023/12/23 08:19:06;;;;;;;;;;;;;;;10.69;68.19;97499.19;4212459;28;5905;-75
2023/12/23 08:21:09;;;;;;;;;;;;;;;10.75;67.74;97506.38;4207772;28;5757;-70
2023/12/23 08:23:12;;;;;;;;;;;;;;;10.76;67.69;97505.41;4213058;28;5797;-68
2023/12/23 08:25:15;;;;;;;;;;;;;;;10.73;67.37;97513.69;4205146;28;5807;-71
2023/12/23 08:27:19;;;;;;;;;;;;;;;10.72;67.03;97513.88;4201894;28;5689;-66
2023/12/23 08:29:24;;;;;;;;;;;;;;;10.70;67.09;97508.75;4213614;28;5686;-67
2023/12/23 08:31:27;;;;;;;;;;;;;;;10.73;67.17;97510.22;4209146;28;5776;-64
2023/12/23 08:33:30;;;;;;;;;;;;;;;10.72;67.23;97512.03;4196180;28;5720;-64
2023/12/23 08:35:34;;;;;;;;;;;;;;;10.75;67.19;97500.28;4205900;28;5839;-71
2023/12/23 08:37:36;;;;;;;;;;;;;;;10.81;67.06;97493.47;4201128;28;6483;-68
2023/12/23 08:39:38;;;;;;;;;;;;;;;10.87;66.77;97501.50;4201009;28;5793;-68
2023/12/23 08:41:41;;;;;;;;;;;;;;;10.89;66.81;97491.59;4201348;28;5688;-76
2023/12/23 08:43:46;;;;;;;;;;;;;;;10.95;66.64;97495.34;4195187;28;5832;-72
2023/12/23 08:45:49;;;;;;;;;;;;;;;11.00;66.66;97500.94;4196926;28;5871;-71
2023/12/23 08:47:52;;;;;;;;;;;;;;;11.00;66.38;97496.47;4200374;28;5676;-67
2023/12/23 08:49:55;;;;;;;;;;;;;;;11.02;66.51;97496.28;4196627;28;5924;-66
2023/12/23 08:51:58;;;;;;;;;;;;;;;11.03;66.29;97493.44;4193443;28;5757;-68
2023/12/23 08:54:01;;;;;;;;;;;;;;;11.08;66.37;97487.59;4202520;28;5698;-67
2023/12/23 08:56:04;;;;;;;;;;;;;;;11.11;66.15;97499.69;4200982;28;5777;-67
2023/12/23 08:58:07;;;;;;;;;;;;;;;11.12;66.33;97488.09;4190682;28;5816;-66
2023/12/23 09:00:12;;;;;;;;;;;;;;;11.13;66.28;97487.09;4192680;28;5084;-67
2023/12/23 09:02:16;;;;;;;;;;;;;;;11.12;66.19;97477.50;4201222;28;5873;-68
2023/12/23 09:04:19;;;;;;;;;;;;;;;11.14;66.05;97483.44;4196141;28;5694;-75
2023/12/23 09:06:22;;;;;;;;;;;;;;;11.15;66.06;97485.91;4197912;28;6011;-69
2023/12/23 09:08:25;;;;;;;;;;;;;;;11.12;65.92;97490.75;4193450;28;6463;-69
2023/12/23 09:10:27;;;;;;;;;;;;;;;11.09;65.96;97500.66;4201773;28;5785;-71
2023/12/23 09:12:30;;;;;;;;;;;;;;;11.10;65.85;97504.16;4199577;28;6756;-70
2023/12/23 09:14:33;;;;;;;;;;;;;;;11.03;65.47;97504.03;4201859;28;6383;-66
2023/12/23 09:16:38;;;;;;;;;;;;;;;10.98;65.41;97510.84;4192512;28;5851;-66
2023/12/23 09:18:40;;;;;;;;;;;;;;;10.93;65.22;97514.03;4197567;28;5742;-66
2023/12/23 09:20:43;;;;;;;;;;;;;;;10.91;64.99;97531.91;4201488;28;5710;-67
2023/12/23 09:22:46;;;;;;;;;;;;;;;10.87;65.35;97522.66;4195338;28;5827;-66
2023/12/23 09:24:51;;;;;;;;;;;;;;;10.90;65.60;97527.63;4201087;28;5797;-66
2023/12/23 09:26:54;;;;;;;;;;;;;;;10.89;65.34;97523.34;4200562;28;5691;-66
2023/12/23 09:28:57;;;;;;;;;;;;;;;10.91;65.05;97516.03;4200932;28;5809;-66
2023/12/23 09:31:00;;;;;;;;;;;;;;;10.95;65.07;97516.50;4201511;28;5771;-66
2023/12/23 09:33:05;;;;;;;;;;;;;;;10.96;65.18;97511.03;4200189;28;5729;-67
2023/12/23 09:35:09;;;;;;;;;;;;;;;10.98;65.03;97509.03;4201720;28;5691;-66
2023/12/23 09:37:12;;;;;;;;;;;;;;;11.04;65.14;97516.25;4188877;28;5777;-69
2023/12/23 09:39:15;;;;;;;;;;;;;;;11.06;64.78;97516.06;4189697;28;5933;-69
2023/12/23 09:41:18;;;;;;;;;;;;;;;11.07;64.67;97521.19;4195486;28;5992;-70
2023/12/23 09:43:23;;;;;;;;;;;;;;;11.04;64.78;97520.72;4195504;28;5712;-69
2023/12/23 09:45:27;;;;;;;;;;;;;;;10.98;64.40;97521.44;4190070;28;5711;-69
2023/12/23 09:47:30;;;;;;;;;;;;;;;10.98;64.50;97518.78;4191386;28;5740;-68
2023/12/23 09:49:36;;;;;;;;;;;;;;;11.05;64.71;97528.47;4196255;28;5697;-68
2023/12/23 09:51:39;;;;;;;;;;;;;;;11.13;64.45;97524.97;4199104;28;5682;-68
2023/12/23 09:53:46;;;;;;;;;;;;;;;11.12;64.47;97530.44;4196897;28;5874;-68
2023/12/23 09:55:50;;;;;;;;;;;;;;;11.09;64.40;97524.47;4198460;28;5808;-70
2023/12/23 09:57:52;;;;;;;;;;;;;;;11.10;64.35;97530.63;4194286;28;5702;-70
2023/12/23 09:59:56;;;;;;;;;;;;;;;11.10;63.85;97530.63;4193449;28;5706;-68
2023/12/23 10:01:58;;;;;;;;;;;;;;;11.06;63.99;97526.66;4195589;28;5697;-67
2023/12/23 10:04:01;;;;;;;;;;;;;;;11.02;64.00;97528.84;4193257;28;5774;-67
2023/12/23 10:06:07;;;;;;;;;;;;;;;10.98;64.07;97532.00;4200037;28;5881;-68
2023/12/23 10:08:10;;;;;;;;;;;;;;;10.97;63.70;97536.47;4189803;28;5791;-67
2023/12/23 10:10:13;;;;;;;;;;;;;;;10.96;64.00;97526.91;4198116;28;5765;-67
2023/12/23 10:12:16;;;;;;;;;;;;;;;10.96;63.80;97526.06;4193832;28;5920;-67
2023/12/23 10:14:20;;;;;;;;;;;;;;;10.95;63.91;97521.78;4193346;28;5737;-66
2023/12/23 10:16:23;;;;;;;;;;;;;;;10.93;64.08;97540.50;4188000;28;5831;-65
2023/12/23 10:18:25;;;;;;;;;;;;;;;10.93;63.68;97529.09;4192591;28;5695;-66
2023/12/23 10:20:28;;;;;;;;;;;;;;;10.90;63.72;97535.56;4196765;28;5921;-67
2023/12/23 10:22:32;;;;;;;;;;;;;;;10.95;63.97;97537.66;4184068;28;5838;-66
2023/12/23 10:24:38;;;;;;;;;;;;;;;10.97;63.85;97535.66;4189975;28;5895;-67
2023/12/23 10:26:42;;;;;;;;;;;;;;;10.98;63.71;97516.97;4184954;28;5715;-67
2023/12/23 10:28:54;;;;;;;;;;;;;;;11.03;64.03;97519.91;4183583;28;5811;-67
2023/12/23 10:31:01;;;;;;;;;;;;;;;11.08;63.88;97511.41;4188541;28;6032;-68
2023/12/23 10:33:06;;;;;;;;;;;;;;;11.04;63.72;97510.97;4184604;28;5762;-66
2023/12/23 10:35:14;;;;;;;;;;;;;;;11.04;63.94;97510.97;4187601;28;5801;-64
2023/12/23 10:37:19;;;;;;;;;;;;;;;11.05;63.95;97511.78;4182070;28;5727;-62
2023/12/23 10:39:28;;;;;;;;;;;;;;;11.06;63.70;97508.13;4188331;28;5827;-63
2023/12/23 10:41:41;;;;;;;;;;;;;;;11.04;63.97;97505.66;4187491;28;5769;-74
2023/12/23 10:43:45;;;;;;;;;;;;;;;11.04;64.12;97497.75;4189360;28;5690;-66
2023/12/23 10:45:49;;;;;;;;;;;;;;;11.13;63.87;97492.38;4180856;28;5795;-66
2023/12/23 10:47:53;;;;;;;;;;;;;;;11.14;63.76;97484.25;4182559;28;5827;-64
2023/12/23 10:49:57;;;;;;;;;;;;;;;11.15;64.20;97493.03;4186630;28;5700;-65
2023/12/23 10:52:01;;;;;;;;;;;;;;;11.19;64.03;97486.34;4190517;28;5715;-63
2023/12/23 10:54:07;;;;;;;;;;;;;;;11.19;64.08;97497.75;4185947;28;5720;-71
2023/12/23 10:56:11;;;;;;;;;;;;;;;11.19;64.29;97486.34;4194577;28;5758;-70
2023/12/23 10:58:21;;;;;;;;;;;;;;;11.22;64.26;97493.97;4188629;28;5710;-71
2023/12/23 11:00:24;;;;;;;;;;;;;;;11.27;64.16;97483.63;4198393;28;5859;-71
2023/12/23 11:02:27;;;;;;;;;;;;;;;11.32;64.03;97487.38;4196224;28;5950;-69
2023/12/23 11:04:30;;;;;;;;;;;;;;;11.41;64.04;97490.75;4191407;28;5724;-71
2023/12/23 11:06:37;;;;;;;;;;;;;;;11.45;64.23;97478.84;4190527;28;5698;-69
2023/12/23 11:08:41;;;;;;;;;;;;;;;11.49;64.20;97484.56;4196795;28;5714;-69
2023/12/23 11:10:46;;;;;;;;;;;;;;;11.52;63.96;97479.72;4193158;28;5831;-66
2023/12/23 11:12:50;;;;;;;;;;;;;;;11.56;64.04;97488.16;4189649;28;5708;-75
2023/12/23 11:14:54;;;;;;;;;;;;;;;11.59;64.04;97480.66;4195030;28;5681;-69
2023/12/23 11:17:00;;;;;;;;;;;;;;;11.61;64.23;97491.88;4195668;28;5820;-72
2023/12/23 11:19:04;;;;;;;;;;;;;;;11.62;64.00;97482.94;4196327;28;5691;-69
2023/12/23 11:21:16;;;;;;;;;;;;;;;11.68;63.95;97478.75;4198531;28;6275;-69
2023/12/23 11:23:35;;;;;;;;;;;;;;;11.71;64.06;97482.84;4192868;28;7776;-69
2023/12/23 11:25:40;;;;;;;;;;;;;;;11.70;63.83;97494.44;4192595;28;5702;-69
2023/12/23 11:27:44;;;;;;;;;;;;;;;11.60;63.58;97495.53;4200801;28;5695;-74
2023/12/23 11:29:50;;;;;;;;;;;;;;;11.59;63.82;97493.91;4198979;28;5678;-71
2023/12/23 11:32:10;;;;;;;;;;;;;;;11.60;64.15;97492.88;4193725;28;5810;-66
2023/12/23 11:34:14;;;;;;;;;;;;;;;11.63;63.68;97494.34;4198830;28;5691;-68
2023/12/23 11:36:18;;;;;;;;;;;;;;;11.67;63.86;97479.75;4193197;28;5785;-64
2023/12/23 11:38:20;;;;;;;;;;;;;;;11.70;63.92;97484.66;4195370;28;5713;-63
2023/12/23 11:40:23;;;;;;;;;;;;;;;11.76;63.63;97472.50;4199688;28;6494;-64
2023/12/23 11:42:26;;;;;;;;;;;;;;;11.78;63.62;97474.00;4197682;28;5845;-64
2023/12/23 11:44:29;;;;;;;;;;;;;;;11.79;63.90;97464.22;4199904;28;5781;-64
2023/12/23 11:46:35;;;;;;;;;;;;;;;11.80;63.53;97464.06;4199943;28;5793;-64
2023/12/23 11:48:38;;;;;;;;;;;;;;;11.81;63.35;97460.41;4200206;28;5702;-64
2023/12/23 11:50:40;;;;;;;;;;;;;;;11.84;63.22;97456.56;4200371;28;5836;-65
2023/12/23 11:52:46;;;;;;;;;;;;;;;11.86;63.46;97451.88;4200111;28;5772;-65
2023/12/23 11:54:50;;;;;;;;;;;;;;;11.87;63.27;97458.81;4199957;28;5698;-65
2023/12/23 11:56:53;;;;;;;;;;;;;;;11.89;63.16;97451.50;4199753;28;5702;-65
2023/12/23 11:58:56;;;;;;;;;;;;;;;11.91;62.78;97444.22;4200010;28;5686;-65
2023/12/23 12:00:59;;;;;;;;;;;;;;;11.90;62.81;97443.41;4196120;28;6384;-65
2023/12/23 12:03:06;;;;;;;;;;;;;;;11.89;62.43;97440.91;4199005;28;5718;-64
2023/12/23 12:05:09;;;;;;;;;;;;;;;11.90;62.00;97437.28;4200051;28;5698;-65
2023/12/23 12:07:12;;;;;;;;;;;;;;;11.88;62.51;97433.97;4200205;28;5815;-65
2023/12/23 12:09:15;;;;;;;;;;;;;;;11.88;62.46;97433.97;4200158;28;5094;-65
2023/12/23 12:11:17;;;;;;;;;;;;;;;11.89;62.60;97430.31;4199470;28;5726;-65
2023/12/23 12:13:20;;;;;;;;;;;;;;;11.93;62.34;97421.00;4201049;28;5690;-65
2023/12/23 12:15:24;;;;;;;;;;;;;;;11.92;61.92;97406.13;4202988;28;5686;-64
2023/12/23 12:17:27;;;;;;;;;;;;;;;11.95;61.86;97416.34;4203038;28;6425;-64
2023/12/23 12:19:31;;;;;;;;;;;;;;;11.95;61.63;97418.97;4203138;28;5690;-64
2023/12/23 12:21:35;;;;;;;;;;;;;;;11.95;61.88;97411.03;4202981;28;5694;-64
2023/12/23 12:23:38;;;;;;;;;;;;;;;11.95;62.00;97403.09;4203420;28;5795;-65
2023/12/23 12:25:48;;;;;;;;;;;;;;;11.97;61.75;97403.72;4202997;28;5772;-64
2023/12/23 12:27:50;;;;;;;;;;;;;;;11.97;61.60;97401.06;4202728;28;5686;-65
2023/12/23 12:29:54;;;;;;;;;;;;;;;11.95;61.53;97403.91;4202662;28;5710;-63
2023/12/23 12:31:58;;;;;;;;;;;;;;;11.98;61.50;97402.72;4194476;28;5698;-63
2023/12/23 12:34:00;;;;;;;;;;;;;;;12.01;61.01;97399.72;4202868;28;5804;-64
2023/12/23 12:36:11;;;;;;;;;;;;;;;12.01;61.16;97394.41;4197751;28;5826;-64
2023/12/23 12:38:14;;;;;;;;;;;;;;;12.00;60.88;97382.13;4198747;28;5881;-65
2023/12/23 12:40:25;;;;;;;;;;;;;;;12.02;60.16;97388.09;4191284;28;5824;-65
2023/12/23 12:42:28;;;;;;;;;;;;;;;12.02;60.38;97385.44;4200454;28;5686;-65
2023/12/23 12:44:33;;;;;;;;;;;;;;;12.02;60.35;97396.03;4197902;28;5723;-64
2023/12/23 12:46:36;;;;;;;;;;;;;;;12.03;60.39;97402.16;4199408;28;5840;-64
2023/12/23 12:48:40;;;;;;;;;;;;;;;12.04;60.16;97399.31;4202310;28;5591;-65
2023/12/23 12:50:43;;;;;;;;;;;;;;;12.05;60.09;97408.09;4202230;28;7738;-65
2023/12/23 12:52:48;;;;;;;;;;;;;;;12.04;60.08;97394.03;4202697;28;5772;-64
2023/12/23 12:54:51;;;;;;;;;;;;;;;12.06;60.35;97399.94;4202590;28;5820;-64
2023/12/23 12:56:54;;;;;;;;;;;;;;;12.06;60.35;97413.19;4202442;28;5106;-64
2023/12/23 12:58:58;;;;;;;;;;;;;;;12.09;59.90;97404.03;4193617;28;5710;-64
2023/12/23 13:01:01;;;;;;;;;;;;;;;12.11;60.02;97409.97;4201062;28;5639;-64
2023/12/23 13:03:05;;;;;;;;;;;;;;;12.11;60.19;97409.97;4202086;28;5831;-64
2023/12/23 13:05:08;;;;;;;;;;;;;;;12.11;60.05;97402.03;4200866;28;5701;-65
2023/12/23 13:07:10;;;;;;;;;;;;;;;12.13;59.99;97400.84;4195942;28;5812;-65
2023/12/23 13:09:14;;;;;;;;;;;;;;;12.15;60.17;97403.31;4201969;28;6037;-65
2023/12/23 13:11:18;;;;;;;;;;;;;;;12.12;60.14;97395.75;4202300;28;5272;-61
2023/12/23 13:13:20;;;;;;;;;;;;;;;12.13;60.04;97395.56;4198771;28;7769;-60
2023/12/23 13:15:23;;;;;;;;;;;;;;;12.15;59.82;97398.00;4193882;28;5815;-61
2023/12/23 13:17:26;;;;;;;;;;;;;;;12.13;60.08;97395.56;4185582;28;5723;-59
2023/12/23 13:19:28;;;;;;;;;;;;;;;12.14;59.88;97402.50;4198100;28;5693;-67
2023/12/23 13:21:31;;;;;;;;;;;;;;;12.15;59.74;97398.84;4199182;28;5691;-61
2023/12/23 13:23:34;;;;;;;;;;;;;;;12.14;59.83;97402.50;4195859;28;5761;-61
2023/12/23 13:25:39;;;;;;;;;;;;;;;12.13;59.63;97392.09;4198691;28;5766;-61
2023/12/23 13:27:42;;;;;;;;;;;;;;;12.14;59.20;97397.19;4193784;28;5849;-61
2023/12/23 13:29:46;;;;;;;;;;;;;;;12.15;59.64;97390.06;4193707;28;5876;-61
2023/12/23 13:31:49;;;;;;;;;;;;;;;12.15;59.27;97385.56;4185951;28;5934;-61
2023/12/23 13:33:52;;;;;;;;;;;;;;;12.16;59.45;97386.41;4197421;28;5821;-61
2023/12/23 13:35:55;;;;;;;;;;;;;;;12.17;59.51;97386.19;4200188;28;5804;-62
2023/12/23 13:37:58;;;;;;;;;;;;;;;12.18;59.21;97381.72;4197857;28;5789;-61
2023/12/23 13:40:01;;;;;;;;;;;;;;;12.20;59.42;97391.13;4198610;28;5749;-60
2023/12/23 13:42:06;;;;;;;;;;;;;;;12.22;59.41;97390.94;4193372;28;5686;-61
2023/12/23 13:44:09;;;;;;;;;;;;;;;12.22;58.96;97394.41;4193653;28;5711;-61
2023/12/23 13:46:13;;;;;;;;;;;;;;;12.23;59.02;97404.03;4199504;28;6399;-61
2023/12/23 13:48:16;;;;;;;;;;;;;;;12.22;59.01;97401.53;4196744;28;5916;-62
2023/12/23 13:50:19;;;;;;;;;;;;;;;12.22;59.23;97396.22;4199809;28;5731;-61
2023/12/23 13:52:22;;;;;;;;;;;;;;;12.24;59.22;97391.59;4195914;28;5690;-61
2023/12/23 13:54:27;;;;;;;;;;;;;;;12.26;59.07;97405.47;4201506;28;5681;-60
2023/12/23 13:56:30;;;;;;;;;;;;;;;12.28;59.04;97399.97;4198197;28;5715;-62
2023/12/23 13:58:35;;;;;;;;;;;;;;;12.26;59.15;97402.00;4201204;28;5749;-61
2023/12/23 14:00:37;;;;;;;;;;;;;;;12.23;58.91;97396.06;4201465;28;5686;-61
2023/12/23 14:02:41;;;;;;;;;;;;;;;12.23;59.03;97396.06;4197666;28;5857;-61
2023/12/23 14:04:44;;;;;;;;;;;;;;;12.24;58.99;97396.88;4189556;28;5631;-61
2023/12/23 14:06:46;;;;;;;;;;;;;;;12.24;58.79;97403.00;4190054;28;5694;-61
2023/12/23 14:08:49;;;;;;;;;;;;;;;12.26;58.55;97409.94;4198539;28;5778;-60
2023/12/23 14:10:52;;;;;;;;;;;;;;;12.24;58.75;97405.66;4197438;28;5894;-61
2023/12/23 14:12:55;;;;;;;;;;;;;;;12.26;58.74;97394.03;4199199;28;5687;-61
2023/12/23 14:15:00;;;;;;;;;;;;;;;12.24;58.92;97405.66;4196782;28;5722;-61
2023/12/23 14:17:03;;;;;;;;;;;;;;;12.24;58.75;97399.53;4197064;28;5690;-61
2023/12/23 14:19:06;;;;;;;;;;;;;;;12.24;58.76;97402.19;4196903;28;5771;-65
2023/12/23 14:21:09;;;;;;;;;;;;;;;12.24;58.81;97410.97;4189192;28;5761;-61
2023/12/23 14:23:12;;;;;;;;;;;;;;;12.24;58.83;97407.50;4183105;28;5849;-62
2023/12/23 14:25:15;;;;;;;;;;;;;;;12.22;58.58;97410.31;4192613;28;6230;-61
2023/12/23 14:27:19;;;;;;;;;;;;;;;12.23;58.60;97411.13;4190611;28;5678;-62
2023/12/23 14:29:22;;;;;;;;;;;;;;;12.22;58.72;97406.81;4193244;28;5694;-62
2023/12/23 14:31:26;;;;;;;;;;;;;;;12.19;58.59;97400.09;4185555;28;5837;-63
2023/12/23 14:33:31;;;;;;;;;;;;;;;12.19;58.56;97415.16;4188793;28;5927;-62
2023/12/23 14:35:33;;;;;;;;;;;;;;;12.16;58.63;97412.91;4191755;28;5981;-62
2023/12/23 14:37:38;;;;;;;;;;;;;;;12.14;58.58;97412.28;4192025;28;5874;-62
2023/12/23 14:39:52;;;;;;;;;;;;;;;12.13;58.59;97422.06;4190829;28;7757;-65
2023/12/23 14:41:55;;;;;;;;;;;;;;;12.14;58.56;97422.88;4196731;28;7734;-62
2023/12/23 14:43:58;;;;;;;;;;;;;;;12.12;58.51;97416.94;4195823;28;5855;-62
2023/12/23 14:46:01;;;;;;;;;;;;;;;12.11;58.31;97429.34;4196932;28;5781;-63
2023/12/23 14:48:07;;;;;;;;;;;;;;;12.09;58.13;97430.53;4188148;28;5699;-61
2023/12/23 14:50:10;;;;;;;;;;;;;;;12.08;58.29;97423.59;4188439;28;5691;-62
2023/12/23 14:52:14;;;;;;;;;;;;;;;12.09;58.20;97420.75;4190845;28;5682;-62
2023/12/23 14:54:16;;;;;;;;;;;;;;;12.08;58.03;97420.97;4195502;28;5770;-62
2023/12/23 14:56:19;;;;;;;;;;;;;;;12.08;58.00;97429.72;4186866;28;5822;-62
2023/12/23 14:58:22;;;;;;;;;;;;;;;12.08;58.04;97429.72;4194140;28;5694;-61
2023/12/23 15:00:25;;;;;;;;;;;;;;;12.10;58.04;97430.34;4187940;28;5765;-62
2023/12/23 15:02:28;;;;;;;;;;;;;;;12.10;58.16;97443.59;4191606;28;5741;-64
2023/12/23 15:04:33;;;;;;;;;;;;;;;12.10;58.14;97438.31;4193593;28;6200;-62
2023/12/23 15:06:36;;;;;;;;;;;;;;;12.10;57.85;97443.59;4197434;28;6776;-65
2023/12/23 15:08:38;;;;;;;;;;;;;;;12.10;57.92;97443.59;4193160;28;5099;-65
2023/12/23 15:10:40;;;;;;;;;;;;;;;12.11;58.18;97444.44;4198595;28;5917;-65
2023/12/23 15:12:44;;;;;;;;;;;;;;;12.09;57.84;97444.63;4184604;28;5707;-65
2023/12/23 15:14:47;;;;;;;;;;;;;;;12.09;57.94;97441.97;4192772;28;5773;-62
2023/12/23 15:16:50;;;;;;;;;;;;;;;12.09;57.94;97443.81;4197408;28;5815;-62
2023/12/23 15:18:52;;;;;;;;;;;;;;;12.05;57.61;97438.06;4194526;28;5679;-62
2023/12/23 15:21:00;;;;;;;;;;;;;;;12.04;57.64;97439.06;4190603;28;5808;-62
2023/12/23 15:23:03;;;;;;;;;;;;;;;12.05;57.98;97437.25;4193928;28;5792;-62
2023/12/23 15:25:07;;;;;;;;;;;;;;;12.05;57.90;97440.72;4198099;28;6395;-62
2023/12/23 15:27:10;;;;;;;;;;;;;;;12.06;57.74;97442.34;4196646;28;5623;-62
2023/12/23 15:29:12;;;;;;;;;;;;;;;12.06;57.74;97437.06;4196026;28;5777;-66
2023/12/23 15:31:15;;;;;;;;;;;;;;;12.05;57.84;97429.28;4197423;28;5833;-63
2023/12/23 15:33:18;;;;;;;;;;;;;;;12.04;57.83;97428.47;4194146;28;5689;-63
2023/12/23 15:35:21;;;;;;;;;;;;;;;12.04;57.89;97431.13;4198450;28;5781;-63
2023/12/23 15:37:26;;;;;;;;;;;;;;;12.04;58.07;97438.25;4192582;28;5717;-63
2023/12/23 15:39:28;;;;;;;;;;;;;;;12.05;57.95;97434.59;4191393;28;5739;-63
2023/12/23 15:41:31;;;;;;;;;;;;;;;12.02;57.83;97438.44;4201457;28;5899;-63
2023/12/23 15:43:34;;;;;;;;;;;;;;;12.02;57.85;97433.16;4196121;28;5678;-65
2023/12/23 15:45:37;;;;;;;;;;;;;;;12.02;57.84;97429.66;4199748;28;5711;-64
2023/12/23 15:47:40;;;;;;;;;;;;;;;12.00;57.75;97427.19;4191079;28;5781;-61
2023/12/23 15:49:43;;;;;;;;;;;;;;;11.99;57.91;97422.88;4203265;28;5765;-61
2023/12/23 15:51:45;;;;;;;;;;;;;;;11.96;57.84;97428.56;4196541;28;5782;-58
2023/12/23 15:53:50;;;;;;;;;;;;;;;11.95;57.75;97432.22;4201622;28;5694;-58
2023/12/23 15:55:53;;;;;;;;;;;;;;;11.93;58.00;97439.56;4196895;28;5723;-59
2023/12/23 15:57:55;;;;;;;;;;;;;;;11.90;57.69;97434.63;4195290;28;5869;-58
2023/12/23 15:59:58;;;;;;;;;;;;;;;11.88;57.98;97434.78;4194225;28;5916;-58
2023/12/23 16:02:00;;;;;;;;;;;;;;;11.85;57.69;97442.28;4194859;28;5838;-58
2023/12/23 16:04:06;;;;;;;;;;;;;;;11.79;57.51;97445.66;4201519;28;6589;-57
2023/12/23 16:06:15;;;;;;;;;;;;;;;11.77;57.66;97439.72;4195906;28;6421;-59
2023/12/23 16:08:18;;;;;;;;;;;;;;;11.79;57.79;97445.66;4198993;28;5686;-59
2023/12/23 16:10:22;;;;;;;;;;;;;;;11.80;57.61;97447.34;4202534;28;5826;-58
2023/12/23 16:12:25;;;;;;;;;;;;;;;11.81;57.73;97451.63;4189318;28;5716;-58
2023/12/23 16:14:28;;;;;;;;;;;;;;;11.83;57.26;97454.91;4198613;28;5702;-58
2023/12/23 16:16:31;;;;;;;;;;;;;;;11.80;57.42;97453.47;4202736;28;5789;-58
2023/12/23 16:18:34;;;;;;;;;;;;;;;11.77;57.39;97455.59;4189398;28;5861;-58
2023/12/23 16:20:37;;;;;;;;;;;;;;;11.76;57.59;97451.31;4200206;28;5710;-58
2023/12/23 16:22:40;;;;;;;;;;;;;;;11.77;57.30;97455.59;4200379;28;5832;-59
2023/12/23 16:24:43;;;;;;;;;;;;;;;11.76;57.43;97451.31;4202608;28;5832;-59
2023/12/23 16:26:50;;;;;;;;;;;;;;;11.75;57.67;97449.66;4199616;28;5798;-59
2023/12/23 16:28:52;;;;;;;;;;;;;;;11.75;57.18;97452.31;4200085;28;5682;-59
2023/12/23 16:30:55;;;;;;;;;;;;;;;11.74;57.39;97451.50;4192277;28;5707;-59
2023/12/23 16:32:57;;;;;;;;;;;;;;;11.73;57.33;97451.69;4193529;28;5707;-59
2023/12/23 16:35:01;;;;;;;;;;;;;;;11.71;57.34;97445.75;4193919;28;5718;-59
2023/12/23 16:37:05;;;;;;;;;;;;;;;11.70;57.36;97446.78;4196465;28;5773;-59
2023/12/23 16:39:07;;;;;;;;;;;;;;;11.70;57.30;97452.88;4195047;28;5804;-59
2023/12/23 16:41:11;;;;;;;;;;;;;;;11.68;57.48;97454.09;4197764;28;5695;-59
2023/12/23 16:43:15;;;;;;;;;;;;;;;11.66;57.44;97457.75;4197270;28;5820;-59
2023/12/23 16:45:18;;;;;;;;;;;;;;;11.65;57.13;97456.06;4197826;28;5691;-59
2023/12/23 16:47:21;;;;;;;;;;;;;;;11.63;57.40;97455.44;4194999;28;5793;-59
2023/12/23 16:49:25;;;;;;;;;;;;;;;11.63;57.44;97473.16;4201814;28;5678;-59
2023/12/23 16:51:44;;;;;;;;;;;;;;;11.61;57.21;97475.16;4199602;28;5798;-59
2023/12/23 16:53:47;;;;;;;;;;;;;;;11.58;57.03;97471.06;4196309;28;5708;-59
2023/12/23 16:55:49;;;;;;;;;;;;;;;11.57;57.02;97474.72;4194824;28;5761;-59
2023/12/23 16:57:53;;;;;;;;;;;;;;;11.54;57.14;97479.53;4201907;28;5682;-58
2023/12/23 16:59:56;;;;;;;;;;;;;;;11.53;57.14;97477.91;4187377;28;5866;-59
2023/12/23 17:01:59;;;;;;;;;;;;;;;11.52;56.90;97471.78;4188763;28;5699;-59
2023/12/23 17:04:02;;;;;;;;;;;;;;;11.52;56.84;97476.25;4202127;28;5781;-57
2023/12/23 17:06:06;;;;;;;;;;;;;;;11.51;57.00;97474.63;4200705;28;5765;-58
2023/12/23 17:08:09;;;;;;;;;;;;;;;11.50;56.92;97471.16;4187001;28;5878;-58
2023/12/23 17:10:12;;;;;;;;;;;;;;;11.51;56.64;97475.44;4197631;28;5694;-63
2023/12/23 17:12:16;;;;;;;;;;;;;;;11.49;56.91;97471.34;4190128;28;5841;-63
2023/12/23 17:14:18;;;;;;;;;;;;;;;11.49;56.91;97469.50;4200043;28;5789;-63
2023/12/23 17:16:23;;;;;;;;;;;;;;;11.49;56.68;97472.16;4200608;28;5682;-63
2023/12/23 17:18:25;;;;;;;;;;;;;;;11.49;56.69;97469.50;4199025;28;5867;-63
2023/12/23 17:20:28;;;;;;;;;;;;;;;11.49;56.35;97476.63;4200447;28;5698;-63
2023/12/23 17:22:30;;;;;;;;;;;;;;;11.47;56.66;97479.47;4193725;28;5818;-64
2023/12/23 17:24:32;;;;;;;;;;;;;;;11.46;56.70;97477.00;4196725;28;5895;-63
2023/12/23 17:26:35;;;;;;;;;;;;;;;11.46;56.32;97475.19;4193695;28;5757;-63
2023/12/23 17:28:38;;;;;;;;;;;;;;;11.47;56.63;97478.66;4192777;28;5823;-64
2023/12/23 17:30:41;;;;;;;;;;;;;;;11.44;56.64;97479.84;4196698;28;5812;-64
2023/12/23 17:32:45;;;;;;;;;;;;;;;11.45;56.43;97472.72;4199240;28;7824;-63
2023/12/23 17:34:48;;;;;;;;;;;;;;;11.44;56.52;97477.19;4194475;28;5707;-64
2023/12/23 17:36:52;;;;;;;;;;;;;;;11.47;56.43;97489.22;4190315;28;5584;-64
2023/12/23 17:38:57;;;;;;;;;;;;;;;11.46;56.58;97488.41;4198896;28;7422;-63
2023/12/23 17:41:00;;;;;;;;;;;;;;;11.46;56.48;97491.06;4196563;28;5114;-62
2023/12/23 17:43:03;;;;;;;;;;;;;;;11.45;56.96;97485.94;4188340;28;5790;-63
2023/12/23 17:45:07;;;;;;;;;;;;;;;11.43;56.96;97487.94;4185281;28;5810;-63
2023/12/23 17:47:09;;;;;;;;;;;;;;;11.43;56.67;97498.53;4188613;28;5807;-63
2023/12/23 17:49:16;;;;;;;;;;;;;;;11.42;56.99;97500.34;4186695;28;5707;-63
2023/12/23 17:51:19;;;;;;;;;;;;;;;11.42;56.73;97499.53;4197595;28;5856;-63
2023/12/23 17:53:22;;;;;;;;;;;;;;;11.41;56.99;97501.34;4196565;28;5806;-64
2023/12/23 17:55:26;;;;;;;;;;;;;;;11.42;57.10;97502.19;4190943;28;6017;-64
2023/12/23 17:57:30;;;;;;;;;;;;;;;11.39;56.74;97492.78;4190686;28;6569;-63
2023/12/23 17:59:32;;;;;;;;;;;;;;;11.35;56.81;97489.69;4198534;28;5686;-63
2023/12/23 18:01:35;;;;;;;;;;;;;;;11.34;56.92;97495.16;4193708;28;5724;-63
2023/12/23 18:03:37;;;;;;;;;;;;;;;11.32;57.00;97497.13;4195339;28;6387;-64
2023/12/23 18:05:42;;;;;;;;;;;;;;;11.31;56.65;97506.91;4191916;28;5936;-64
2023/12/23 18:07:45;;;;;;;;;;;;;;;11.30;56.87;97504.44;4197821;28;5808;-64
2023/12/23 18:09:47;;;;;;;;;;;;;;;11.30;56.88;97499.16;4193413;28;5829;-63
2023/12/23 18:11:50;;;;;;;;;;;;;;;11.27;56.59;97507.47;4190769;28;5900;-63
2023/12/23 18:13:54;;;;;;;;;;;;;;;11.26;56.84;97503.16;4193323;28;5953;-63
2023/12/23 18:15:57;;;;;;;;;;;;;;;11.22;56.80;97512.47;4193142;28;5785;-63
2023/12/23 18:18:00;;;;;;;;;;;;;;;11.21;56.96;97516.09;4193455;28;5960;-63
2023/12/23 18:20:05;;;;;;;;;;;;;;;11.18;56.62;97527.06;4197508;28;5800;-64
2023/12/23 18:22:09;;;;;;;;;;;;;;;11.17;56.66;97520.13;4200132;28;5682;-64
2023/12/23 18:24:12;;;;;;;;;;;;;;;11.18;56.98;97521.75;4199156;28;5863;-64
2023/12/23 18:26:16;;;;;;;;;;;;;;;11.18;56.93;97524.41;4200154;28;5802;-64
2023/12/23 18:28:20;;;;;;;;;;;;;;;11.17;57.04;97523.59;4192092;28;5857;-63
2023/12/23 18:30:23;;;;;;;;;;;;;;;11.16;56.93;97523.78;4197849;28;5695;-64